Strona główna
METAR-TAF:

METAR-TAF

Lotnisko :

Port lotniczy Olsztyn-Mazury

Olsztyn, Polska

Szerokość geograficzna: 53-28-55N, Długość geograficzna: 20-56-16E, wysokość: 141 m

Aktualna obserwacja pogody

Raport powstał 11 minut temu, godzina 23:30 UTC
Wiatr 3 kt od północny wschód
Temperatura 8°C
Wilgotność 61%
Ciśnienie 1016 hPa
Widzialność 10 km lub więcej
Brak chmur poniżej 1500 m i brak chmur cumulonimbus

METAR: EPSY 172330Z 04003KT CAVOK 08/01 Q1016

czas: 01:41 (23:41 UTC)

Prognoza

Raport powstał 11 minut temu, godzina 23:30 UTC
Prognoza ważna od 18 godzina 00 UTC do 18 godzina 09 UTC
Wiatr 5 kt od wschód
Widzialność 10 km lub więcej
Brak chmur poniżej 1500 m i brak chmur cumulonimbus

TAF: EPSY 172330Z 1800/1809 08005KT CAVOK

Obserwacja i prognoza pogody dla ponad 4000 lotnisk (raport METAR i TAF).

Dostępne stacje oznaczono żółtymi i czerwonymi punktami na mapie.

Najedź kursorem aby zobaczyć nazwę stacji.

Kliknij aby zobaczyć obserwacje i prognozy pogody.

Aby zmienić mapę: kliknij na zielony przycisk z czarnym krzyżykiem, aby powiększyć; na zielony przycisk z myślnikiem, aby pomniejszyć; na zielone strzałki, aby przejść do map sąsiednich.


METAR-TAF: